Time;durP1;ratioP1;P1;durP2;ratioP2;P2;SDS_P1;SDS_P2;PMS_P1;PMS_P2;Temp;Humidity;BMP_temperature;BMP_pressure;BME280_temperature;BME280_humidity;BME280_pressure;Samples;Min_cycle;Max_cycle;Signal;HPM_P1;HPM_P2
2023/04/20 00:00:38;;;;;;;26.33;6.50;;;;;;;10.09;36.13;100177.38;5078046;28;20092;-63
2023/04/20 00:03:06;;;;;;;15.27;5.97;;;;;;;9.90;35.60;100145.78;5080023;28;20055;-62
2023/04/20 00:05:31;;;;;;;12.35;5.00;;;;;;;9.98;35.18;100169.00;5097571;28;20050;-62
2023/04/20 00:07:57;;;;;;;14.27;5.10;;;;;;;10.05;35.91;100173.13;5076655;28;20040;-62
2023/04/20 00:10:27;;;;;;;17.17;5.22;;;;;;;9.88;35.88;100149.34;5098149;28;20047;-62
2023/04/20 00:12:53;;;;;;;10.00;4.47;;;;;;;10.02;35.54;100175.81;5081684;28;20323;-62
2023/04/20 00:15:19;;;;;;;15.98;4.88;;;;;;;9.99;36.20;100173.31;5079155;28;20092;-61
2023/04/20 00:17:47;;;;;;;13.75;5.03;;;;;;;9.98;36.03;100184.59;5088104;28;20039;-62
2023/04/20 00:20:14;;;;;;;12.70;4.63;;;;;;;9.95;36.14;100175.09;5087455;28;20538;-61
2023/04/20 00:22:40;;;;;;;11.02;4.30;;;;;;;9.93;36.38;100171.72;5087854;28;20121;-60
2023/04/20 00:25:06;;;;;;;14.73;4.57;;;;;;;9.95;36.14;100169.91;5070102;28;20526;-62
2023/04/20 00:27:32;;;;;;;14.60;4.65;;;;;;;9.87;36.33;100158.00;5086565;28;20044;-63
2023/04/20 00:29:58;;;;;;;10.80;4.55;;;;;;;9.87;36.26;100179.66;5050741;28;20397;-63
2023/04/20 00:32:24;;;;;;;11.18;4.93;;;;;;;9.88;36.31;100175.31;5086937;28;20047;-62
2023/04/20 00:34:50;;;;;;;12.35;4.65;;;;;;;9.69;36.66;100152.34;5088306;28;20518;-62
2023/04/20 00:37:16;;;;;;;17.45;4.60;;;;;;;9.81;36.75;100171.13;5087690;28;20051;-62
2023/04/20 00:39:42;;;;;;;14.88;5.03;;;;;;;9.77;37.00;100168.63;5058056;28;20508;-53
2023/04/20 00:42:08;;;;;;;14.60;4.97;;;;;;;9.74;37.32;100168.66;5103814;28;20043;-59
2023/04/20 00:44:34;;;;;;;15.15;5.07;;;;;;;9.71;37.11;100167.91;5091885;28;20056;-54
2023/04/20 00:47:01;;;;;;;18.42;5.72;;;;;;;9.38;37.17;100112.41;5091856;28;20035;-57
2023/04/20 00:49:28;;;;;;;20.33;5.28;;;;;;;9.68;37.75;100157.59;5073227;28;20046;-59
2023/04/20 00:51:58;;;;;;;15.88;5.60;;;;;;;9.49;37.96;100133.78;5090025;28;20036;-55
2023/04/20 00:54:25;;;;;;;;;;;;;;;9.46;37.57;100138.19;5073247;28;20431;-58
2023/04/20 00:56:51;;;;;;;14.63;5.25;;;;;;;9.51;37.87;100159.72;5072758;28;19916;-57
2023/04/20 00:59:18;;;;;;;18.60;5.63;;;;;;;9.42;38.34;100147.78;5106818;28;20046;-57
2023/04/20 01:01:45;;;;;;;21.20;6.60;;;;;;;9.42;38.32;100144.34;5091503;28;20044;-58
2023/04/20 01:04:11;;;;;;;14.00;5.65;;;;;;;9.38;38.08;100148.75;5107308;28;20039;-56
2023/04/20 01:06:37;;;;;;;17.52;6.03;;;;;;;9.37;38.22;100149.63;5057146;28;20573;-59
2023/04/20 01:09:03;;;;;;;15.40;5.78;;;;;;;9.35;38.72;100147.09;5052440;28;20044;-58
2023/04/20 01:11:29;;;;;;;13.68;5.85;;;;;;;9.32;38.39;100146.28;5074806;28;20518;-55
2023/04/20 01:13:55;;;;;;;15.07;5.68;;;;;;;9.25;38.69;100129.16;5078078;28;20134;-57
2023/04/20 01:16:21;;;;;;;10.77;4.93;;;;;;;9.27;38.59;100138.59;5073877;28;20044;-57
2023/04/20 01:18:49;;;;;;;16.33;5.40;;;;;;;9.24;38.61;100128.28;5090653;28;20036;-57
2023/04/20 01:21:17;;;;;;;20.27;5.80;;;;;;;9.23;39.12;100136.09;5089967;28;20401;-55
2023/04/20 01:23:44;;;;;;;16.17;5.22;;;;;;;9.18;38.99;100130.16;5061589;28;20067;-56
2023/04/20 01:26:13;;;;;;;9.07;4.75;;;;;;;9.16;39.16;100127.59;5071534;28;20036;-55
2023/04/20 01:28:39;;;;;;;13.00;5.00;;;;;;;8.98;39.27;100101.22;5104712;28;20058;-57
2023/04/20 01:31:07;;;;;;;17.30;5.70;;;;;;;9.05;39.63;100139.97;5085734;28;20067;-57
2023/04/20 01:33:33;;;;;;;16.38;5.63;;;;;;;8.97;40.03;100131.47;5070468;28;20047;-58
2023/04/20 01:35:59;;;;;;;18.30;5.15;;;;;;;8.84;39.47;100125.69;5069940;28;20044;-56
2023/04/20 01:38:31;;;;;;;13.80;5.25;;;;;;;8.85;40.08;100136.91;5104953;28;20036;-53
2023/04/20 01:41:03;;;;;;;15.27;5.70;;;;;;;8.78;40.20;100123.22;5087311;28;20500;-56
2023/04/20 01:43:30;;;;;;;15.25;5.32;;;;;;;8.77;40.07;100131.03;5073051;28;20229;-56
2023/04/20 01:45:57;;;;;;;20.10;5.53;;;;;;;8.67;40.36;100127.75;5073170;28;20036;-56
2023/04/20 01:48:23;;;;;;;12.40;5.35;;;;;;;8.65;40.86;100132.13;5073342;28;20155;-56
2023/04/20 01:50:50;;;;;;;16.45;5.70;;;;;;;8.60;41.20;100122.72;5089263;28;20074;-57
2023/04/20 01:53:18;;;;;;;14.20;5.75;;;;;;;8.57;40.67;100120.19;5090404;28;20040;-57
2023/04/20 01:55:47;;;;;;;25.25;6.85;;;;;;;8.53;41.16;100116.78;5072899;28;20044;-57
2023/04/20 01:58:14;;;;;;;15.32;5.78;;;;;;;8.52;41.36;100117.69;5090927;28;20074;-55
2023/04/20 02:00:40;;;;;;;12.25;5.70;;;;;;;8.31;41.03;100084.41;5056319;28;20044;-57
2023/04/20 02:03:07;;;;;;;18.63;5.82;;;;;;;8.43;41.17;100113.53;5105416;28;20093;-54
2023/04/20 02:05:33;;;;;;;19.77;5.25;;;;;;;8.43;41.73;100121.28;5089127;28;20454;-55
2023/04/20 02:07:59;;;;;;;23.52;5.60;;;;;;;8.37;41.50;100121.41;5050218;28;20093;-59
2023/04/20 02:10:25;;;;;;;14.55;5.00;;;;;;;8.33;41.93;100113.72;5068370;28;20474;-57
2023/04/20 02:12:51;;;;;;;21.55;5.93;;;;;;;8.30;42.17;100124.16;5083888;28;20517;-54
2023/04/20 02:15:19;;;;;;;20.13;6.15;;;;;;;8.26;42.39;100112.97;5071441;28;20036;-55
2023/04/20 02:17:46;;;;;;;17.08;5.38;;;;;;;8.24;41.98;100114.72;5106293;28;20384;-55
2023/04/20 02:20:12;;;;;;;24.58;6.18;;;;;;;8.23;42.30;100110.41;5088586;28;20039;-56
2023/04/20 02:22:38;;;;;;;17.63;5.50;;;;;;;8.23;42.37;100117.31;5071687;28;20044;-58
2023/04/20 02:25:05;;;;;;;16.50;6.00;;;;;;;8.24;42.61;100111.28;5105667;28;20039;-56
2023/04/20 02:27:32;;;;;;;15.90;6.60;;;;;;;8.07;42.80;100085.66;5088418;28;20379;-58
2023/04/20 02:29:58;;;;;;;22.63;6.88;;;;;;;8.26;43.09;100118.16;5090624;28;20046;-57
2023/04/20 02:32:24;;;;;;;17.70;6.10;;;;;;;8.25;42.98;100108.66;5088911;28;20507;-58
2023/04/20 02:34:50;;;;;;;18.23;5.95;;;;;;;8.26;42.74;100107.78;5050755;28;20047;-58
2023/04/20 02:37:17;;;;;;;22.50;6.80;;;;;;;8.23;42.63;100112.16;5069957;28;20043;-53
2023/04/20 02:39:43;;;;;;;29.48;6.53;;;;;;;8.23;43.23;100113.00;5071503;28;20102;-57
2023/04/20 02:42:08;;;;;;;24.02;6.68;;;;;;;8.22;42.97;100116.47;5055149;28;20411;-54
2023/04/20 02:44:35;;;;;;;27.90;6.13;;;;;;;8.08;43.06;100100.31;5089853;28;20056;-58
2023/04/20 02:47:03;;;;;;;27.15;6.13;;;;;;;8.23;43.28;100114.75;5038825;28;20070;-57
2023/04/20 02:49:29;;;;;;;23.02;6.10;;;;;;;8.15;43.34;100101.09;5071222;28;20039;-54
2023/04/20 02:51:56;;;;;;;20.05;6.30;;;;;;;8.23;43.34;100102.63;5072002;28;20059;-53
2023/04/20 02:54:22;;;;;;;19.50;6.57;;;;;;;8.25;43.70;100105.22;5068939;28;20465;-58
2023/04/20 02:56:49;;;;;;;23.25;6.32;;;;;;;8.11;43.28;100092.53;5104983;28;20040;-57
2023/04/20 02:59:16;;;;;;;21.10;6.93;;;;;;;8.23;43.38;100117.31;5089901;28;20505;-57
2023/04/20 03:01:48;;;;;;;28.48;6.38;;;;;;;8.24;44.08;100111.28;5071444;28;20044;-55
2023/04/20 03:04:18;;;;;;;18.75;6.10;;;;;;;8.20;43.56;100100.13;5037685;28;20045;-57
2023/04/20 03:07:04;;;;;;;16.73;6.47;;;;;;;8.22;43.58;100111.28;5068554;28;20056;-56
2023/04/20 03:09:33;;;;;;;10.02;5.25;;;;;;;8.03;43.52;100071.06;5056984;28;20036;-56
2023/04/20 03:12:01;;;;;;;17.35;5.78;;;;;;;8.26;43.57;100107.78;5089109;28;20043;-59
2023/04/20 03:14:47;;;;;;;18.00;5.65;;;;;;;7.99;43.48;100059.06;5062035;28;20155;-54
2023/04/20 03:17:14;;;;;;;14.93;6.10;;;;;;;8.33;43.46;100099.03;5054365;28;20036;-53
2023/04/20 03:19:40;;;;;;;17.02;6.25;;;;;;;8.07;43.33;100055.44;5085353;28;20132;-59
2023/04/20 03:22:06;;;;;;;20.25;5.65;;;;;;;8.19;43.45;100069.06;5086791;28;20130;-58
2023/04/20 03:24:33;;;;;;;18.85;5.82;;;;;;;8.42;43.54;100098.03;5056472;28;20089;-56
2023/04/20 03:27:04;;;;;;;17.40;6.10;;;;;;;8.45;43.95;100097.94;5033889;28;20045;-57
2023/04/20 03:29:41;;;;;;;16.83;6.35;;;;;;;8.47;43.91;100094.47;5059929;28;20782;-59
2023/04/20 03:32:08;;;;;;;23.20;6.78;;;;;;;8.46;43.74;100095.34;5070484;28;20528;-54
2023/04/20 03:34:34;;;;;;;19.15;6.78;;;;;;;8.49;43.70;100102.19;5053933;28;20040;-56
2023/04/20 03:37:00;;;;;;;17.98;6.93;;;;;;;8.54;43.63;100082.22;5059623;28;20119;-58
2023/04/20 03:39:26;;;;;;;24.92;6.50;;;;;;;8.58;43.65;100088.22;5088282;28;20035;-56
2023/04/20 03:41:52;;;;;;;20.13;6.05;;;;;;;8.69;43.61;100094.88;5103804;28;20047;-58
2023/04/20 03:44:18;;;;;;;15.15;6.15;;;;;;;8.74;43.64;100102.59;5048471;28;20078;-58
2023/04/20 03:46:44;;;;;;;18.52;6.28;;;;;;;8.78;43.26;100101.63;5088652;28;20072;-57
2023/04/20 03:49:10;;;;;;;14.20;6.00;;;;;;;8.86;43.24;100097.13;5087640;28;20576;-58
2023/04/20 03:51:36;;;;;;;17.00;6.28;;;;;;;8.93;43.55;100096.97;5086745;28;20093;-54
2023/04/20 03:54:04;;;;;;;10.98;5.55;;;;;;;8.99;43.65;100096.00;5087748;28;20044;-57
2023/04/20 03:56:31;;;;;;;13.52;4.97;;;;;;;8.93;43.18;100072.78;5053627;28;20122;-54
2023/04/20 03:58:57;;;;;;;14.10;5.97;;;;;;;9.11;43.10;100095.72;5104320;28;20039;-59
2023/04/20 04:01:25;;;;;;;14.50;5.75;;;;;;;9.18;42.86;100094.69;5070521;28;20380;-57
2023/04/20 04:03:51;;;;;;;10.73;5.47;;;;;;;9.25;43.11;100093.69;5086209;28;20051;-60
2023/04/20 04:06:18;;;;;;;13.63;5.40;;;;;;;9.33;42.71;100090.91;5069912;28;20048;-58
2023/04/20 04:08:44;;;;;;;21.35;6.15;;;;;;;9.39;42.75;100092.50;5088539;28;20058;-53
2023/04/20 04:11:10;;;;;;;15.85;6.60;;;;;;;9.45;42.19;100093.22;5086225;28;20032;-56
2023/04/20 04:13:36;;;;;;;13.75;5.97;;;;;;;9.50;42.41;100096.56;5104196;28;20040;-54
2023/04/20 04:16:05;;;;;;;18.42;6.60;;;;;;;9.56;42.52;100087.78;5103704;28;20040;-58
2023/04/20 04:18:31;;;;;;;9.77;5.15;;;;;;;9.57;42.60;100079.97;5086121;28;20249;-55
2023/04/20 04:21:00;;;;;;;15.20;5.43;;;;;;;9.68;42.39;100090.91;5089827;28;20093;-54
2023/04/20 04:23:26;;;;;;;11.77;5.43;;;;;;;9.73;41.83;100089.06;5066210;28;20090;-56
2023/04/20 04:26:03;;;;;;;14.18;5.40;;;;;;;9.77;41.84;100082.06;5053207;28;20051;-59
2023/04/20 04:28:32;;;;;;;17.65;6.13;;;;;;;9.86;42.12;100083.59;5066786;28;20535;-56
2023/04/20 04:31:12;;;;;;;15.07;6.03;;;;;;;9.95;42.22;100081.59;5051531;28;20044;-55
2023/04/20 04:33:38;;;;;;;14.95;6.22;;;;;;;9.92;41.95;100063.50;5069746;28;20040;-56
2023/04/20 04:36:06;;;;;;;14.52;6.57;;;;;;;10.08;41.81;100077.81;5087443;28;20047;-58
2023/04/20 04:38:34;;;;;;;19.85;6.75;;;;;;;9.98;41.73;100054.72;5103805;28;20423;-59
2023/04/20 04:41:00;;;;;;;21.23;6.88;;;;;;;10.02;41.60;100045.94;5053078;28;20046;-58
2023/04/20 04:43:26;;;;;;;17.05;5.53;;;;;;;10.04;41.62;100038.97;5069206;28;20063;-60
2023/04/20 04:46:21;;;;;;;14.95;5.78;;;;;;;10.33;41.80;100077.19;5099740;28;20069;-56
2023/04/20 04:48:47;;;;;;;41.67;7.25;;;;;;;10.43;41.51;100073.44;5080562;28;20032;-56
2023/04/20 04:51:13;;;;;;;19.90;6.43;;;;;;;10.51;41.43;100074.09;5094406;28;20530;-55
2023/04/20 04:53:39;;;;;;;14.25;6.47;;;;;;;10.59;41.21;100069.53;5102950;28;20427;-58
2023/04/20 04:56:05;;;;;;;13.55;5.82;;;;;;;10.67;40.80;100067.56;5087569;28;21062;-56
2023/04/20 04:58:31;;;;;;;16.08;5.68;;;;;;;10.74;41.04;100060.41;5097615;28;20054;-57
2023/04/20 05:00:57;;;;;;;18.35;5.78;;;;;;;10.84;40.88;100057.50;5098428;28;20431;-61
2023/04/20 05:03:23;;;;;;;12.80;6.45;;;;;;;10.92;40.86;100067.69;5064650;28;20036;-57
2023/04/20 05:05:49;;;;;;;11.88;5.80;;;;;;;10.94;40.79;100050.28;5069182;28;20492;-58
2023/04/20 05:08:15;;;;;;;14.70;6.10;;;;;;;11.10;41.08;100068.88;5093974;28;20047;-56
2023/04/20 05:10:41;;;;;;;20.60;8.32;;;;;;;11.18;40.05;100061.72;5107831;28;20044;-58
2023/04/20 05:13:07;;;;;;;12.18;6.22;;;;;;;11.30;40.36;100064.81;5083741;28;20158;-59
2023/04/20 05:15:33;;;;;;;14.23;6.13;;;;;;;11.40;40.40;100061.00;5086971;28;20047;-59
2023/04/20 05:18:01;;;;;;;11.80;5.38;;;;;;;11.52;39.98;100059.75;5087358;28;20043;-59
2023/04/20 05:20:27;;;;;;;19.25;6.53;;;;;;;11.64;39.40;100061.09;5069575;28;20169;-60
2023/04/20 05:22:53;;;;;;;17.48;6.22;;;;;;;11.70;39.71;100037.47;5068320;28;20127;-56
2023/04/20 05:25:19;;;;;;;19.38;6.88;;;;;;;11.91;39.98;100051.56;5087467;28;20531;-60
2023/04/20 05:27:46;;;;;;;17.13;5.90;;;;;;;11.99;39.48;100054.75;5087049;28;20040;-59
2023/04/20 05:30:12;;;;;;;36.90;6.65;;;;;;;12.08;38.96;100057.91;5077943;28;20044;-60
2023/04/20 05:32:38;;;;;;;11.77;6.32;;;;;;;12.16;38.91;100050.66;5080606;28;20594;-59
2023/04/20 05:35:04;;;;;;;15.90;6.43;;;;;;;12.30;38.75;100056.22;5074997;28;20040;-61
2023/04/20 05:37:31;;;;;;;19.02;7.32;;;;;;;12.42;38.89;100054.09;5052710;28;20688;-59
2023/04/20 05:39:57;;;;;;;15.25;6.32;;;;;;;12.53;38.47;100041.53;5070952;28;20085;-54
2023/04/20 05:42:23;;;;;;;15.88;5.57;;;;;;;12.62;38.36;100033.34;5075097;28;20044;-59
2023/04/20 05:44:49;;;;;;;11.65;5.55;;;;;;;12.46;38.20;99999.16;5090043;28;20048;-55
2023/04/20 05:47:15;;;;;;;11.40;5.72;;;;;;;12.87;38.17;100044.59;5088352;28;20101;-59
2023/04/20 05:49:41;;;;;;;15.52;5.82;;;;;;;13.00;38.14;100043.19;5088935;28;20427;-56
2023/04/20 05:52:07;;;;;;;14.80;5.78;;;;;;;13.12;38.00;100044.53;5090653;28;20519;-59
2023/04/20 05:54:33;;;;;;;18.08;5.50;;;;;;;13.31;37.90;100045.50;5090669;28;20035;-54
2023/04/20 05:56:59;;;;;;;13.95;5.72;;;;;;;13.47;37.34;100043.13;5090044;28;20399;-54
2023/04/20 05:59:25;;;;;;;15.35;5.15;;;;;;;13.70;36.93;100035.22;5089867;28;20047;-57
2023/04/20 06:01:52;;;;;;;11.40;6.18;;;;;;;13.81;36.70;100022.53;5106147;28;20040;-56
2023/04/20 06:04:18;;;;;;;18.23;6.47;;;;;;;14.14;36.19;100038.53;5095140;28;20053;-56
2023/04/20 06:06:43;;;;;;;10.68;5.05;;;;;;;14.38;35.79;100039.28;5098681;28;20042;-59
2023/04/20 06:09:10;;;;;;;11.77;5.60;;;;;;;14.67;35.54;100035.34;5078928;28;20043;-60
2023/04/20 06:11:36;;;;;;;14.00;5.65;;;;;;;15.33;34.49;100039.22;5068102;28;20093;-58
2023/04/20 06:14:01;;;;;;;18.02;5.82;;;;;;;16.12;33.45;100037.06;5088048;28;20734;-57
2023/04/20 06:16:28;;;;;;;11.82;5.90;;;;;;;16.97;32.20;100036.00;5088091;28;20096;-57
2023/04/20 06:18:54;;;;;;;15.38;5.72;;;;;;;17.90;31.12;100036.00;5077967;28;20537;-59
2023/04/20 06:21:20;;;;;;;10.52;5.22;;;;;;;18.74;30.14;100022.03;5079286;28;20040;-61
2023/04/20 06:23:46;;;;;;;12.65;6.05;;;;;;;19.72;29.19;100030.66;5081057;28;20048;-61
2023/04/20 06:26:12;;;;;;;19.25;7.38;;;;;;;20.54;28.19;100022.38;5077452;28;20107;-60
2023/04/20 06:28:38;;;;;;;15.35;5.90;;;;;;;21.60;27.12;100034.16;5069145;28;20036;-62
2023/04/20 06:31:04;;;;;;;9.00;4.45;;;;;;;22.50;25.66;100034.28;5072256;28;20585;-58
2023/04/20 06:33:30;;;;;;;8.35;4.85;;;;;;;23.39;24.46;100034.22;5090644;28;20057;-60
2023/04/20 06:35:59;;;;;;;13.20;6.70;;;;;;;24.19;23.29;100039.06;5075589;28;20036;-60
2023/04/20 06:38:25;;;;;;;;;;;;;;;24.89;22.63;100031.19;5068997;28;20133;-62
2023/04/20 06:40:51;;;;;;;13.05;5.20;;;;;;;25.66;22.04;100026.84;5070674;28;19915;-63
2023/04/20 06:43:17;;;;;;;10.82;5.25;;;;;;;26.37;21.20;100030.00;5090780;28;20039;-60
2023/04/20 06:45:43;;;;;;;12.48;5.18;;;;;;;27.15;20.16;100033.19;5089032;28;20522;-61
2023/04/20 06:48:09;;;;;;;8.00;4.40;;;;;;;27.81;19.27;100018.50;5076502;28;20064;-62
2023/04/20 06:50:35;;;;;;;9.05;4.30;;;;;;;28.24;18.84;100027.53;5076335;28;20043;-63
2023/04/20 06:53:03;;;;;;;6.18;4.35;;;;;;;28.84;18.07;100017.69;5081451;28;20178;-62
2023/04/20 06:55:29;;;;;;;17.65;5.50;;;;;;;29.31;17.75;100025.22;5097976;28;20043;-64
2023/04/20 06:57:55;;;;;;;11.07;5.10;;;;;;;29.70;17.28;100020.91;5096983;28;20383;-60
2023/04/20 07:00:21;;;;;;;14.73;4.82;;;;;;;30.09;16.83;100020.28;5099857;28;20043;-64
2023/04/20 07:02:49;;;;;;;9.88;5.40;;;;;;;30.74;16.46;100020.97;5080369;28;20059;-60
2023/04/20 07:05:16;;;;;;;8.52;4.47;;;;;;;31.37;15.74;100012.75;5098485;28;20557;-60
2023/04/20 07:07:42;;;;;;;22.95;5.30;;;;;;;32.02;15.31;100011.44;5080466;28;20039;-61
2023/04/20 07:10:10;;;;;;;8.25;4.70;;;;;;;32.63;14.52;100010.28;5105538;28;20047;-61
2023/04/20 07:12:37;;;;;;;8.55;4.53;;;;;;;33.24;14.22;100008.22;5087321;28;20040;-62
2023/04/20 07:15:03;;;;;;;10.02;4.70;;;;;;;33.68;13.88;100006.19;5068327;28;20082;-64
2023/04/20 07:17:32;;;;;;;9.57;4.18;;;;;;;34.15;13.43;100007.41;5068975;28;20396;-63
2023/04/20 07:20:05;;;;;;;7.63;4.93;;;;;;;34.59;13.06;99999.81;5095122;28;20032;-61
2023/04/20 07:22:32;;;;;;;9.05;4.63;;;;;;;34.94;12.59;99983.56;5088243;28;20040;-65
2023/04/20 07:25:01;;;;;;;8.20;4.53;;;;;;;35.16;12.56;99996.75;5069670;28;20036;-64
2023/04/20 07:27:28;;;;;;;10.40;4.93;;;;;;;35.52;12.42;99993.72;5066661;28;20040;-62
2023/04/20 07:29:55;;;;;;;7.50;4.38;;;;;;;36.05;12.19;100002.72;5086915;28;20044;-62
2023/04/20 07:32:22;;;;;;;7.43;5.18;;;;;;;36.53;12.00;99997.03;5096551;28;20114;-62
2023/04/20 07:34:48;;;;;;;7.28;4.35;;;;;;;36.72;11.27;100003.44;5066091;28;20067;-60
2023/04/20 07:37:14;;;;;;;7.38;4.22;;;;;;;36.76;10.93;100001.97;5056924;28;20044;-60
2023/04/20 07:39:40;;;;;;;6.78;5.03;;;;;;;36.80;11.32;99976.09;5088080;28;20135;-60
2023/04/20 07:42:06;;;;;;;11.73;5.50;;;;;;;37.27;11.01;99999.22;5091940;28;20566;-63
2023/04/20 07:44:32;;;;;;;6.60;4.85;;;;;;;37.73;10.50;99991.66;5072791;28;20432;-63
2023/04/20 07:46:58;;;;;;;7.75;4.20;;;;;;;38.28;10.42;99982.78;5076395;28;20407;-61
2023/04/20 07:49:25;;;;;;;11.27;4.22;;;;;;;37.96;10.36;99987.47;5109575;27;20044;-60
2023/04/20 07:51:51;;;;;;;7.90;4.22;;;;;;;35.06;11.64;99958.47;5092930;28;20568;-61
2023/04/20 07:54:16;;;;;;;7.93;4.28;;;;;;;34.28;11.89;99978.66;5097481;28;20519;-60
2023/04/20 07:56:42;;;;;;;8.80;4.35;;;;;;;35.63;10.48;99985.00;5098569;28;20043;-61
2023/04/20 07:59:08;;;;;;;6.18;4.20;;;;;;;36.68;10.22;99975.94;5074993;28;20028;-60
2023/04/20 08:01:35;;;;;;;12.88;6.93;;;;;;;37.56;9.57;99976.13;5077879;28;20047;-59
2023/04/20 08:04:02;;;;;;;4.87;3.83;;;;;;;38.09;9.26;99982.78;5087558;28;20036;-61
2023/04/20 08:06:27;;;;;;;9.05;4.13;;;;;;;38.32;9.31;99957.66;5080687;28;20077;-60
2023/04/20 08:08:54;;;;;;;5.30;3.65;;;;;;;38.16;8.81;99963.69;5092001;28;20104;-63
2023/04/20 08:11:20;;;;;;;8.13;3.20;;;;;;;37.71;8.93;99957.63;5070960;28;20039;-60
2023/04/20 08:13:46;;;;;;;7.65;3.47;;;;;;;35.16;9.92;99964.31;5084493;28;20114;-61
2023/04/20 08:16:12;;;;;;;14.52;3.53;;;;;;;32.78;11.14;99946.50;5083001;28;20044;-60
2023/04/20 08:18:38;;;;;;;5.97;4.00;;;;;;;31.12;12.13;99962.88;5089039;28;20581;-60
2023/04/20 08:21:04;;;;;;;15.15;5.05;;;;;;;29.71;12.71;99931.47;5063615;28;20131;-60
2023/04/20 08:23:30;;;;;;;9.90;6.15;;;;;;;29.49;13.01;99950.91;5087047;28;20491;-62
2023/04/20 08:25:56;;;;;;;11.52;7.55;;;;;;;29.06;13.20;99927.88;5059400;28;20419;-62
2023/04/20 08:28:23;;;;;;;7.22;6.00;;;;;;;29.69;13.13;99943.34;5080560;28;20036;-63
2023/04/20 08:30:50;;;;;;;12.13;8.05;;;;;;;31.42;13.24;99953.09;5054966;28;20454;-64
2023/04/20 08:33:16;;;;;;;16.42;12.05;;;;;;;33.59;11.68;99948.00;5052696;28;20032;-65
2023/04/20 08:35:42;;;;;;;7.93;4.35;;;;;;;35.29;10.53;99947.28;5074206;28;20045;-60
2023/04/20 08:38:08;;;;;;;6.93;4.68;;;;;;;36.58;10.13;99950.31;5049400;28;20118;-67
2023/04/20 08:40:35;;;;;;;6.97;4.10;;;;;;;37.16;9.37;99951.94;5073584;28;20070;-62
2023/04/20 08:43:01;;;;;;;8.82;4.70;;;;;;;37.63;9.03;99949.75;5087313;28;20047;-63
2023/04/20 08:45:29;;;;;;;10.02;4.13;;;;;;;38.36;9.16;99920.84;5054758;28;20053;-49
2023/04/20 08:47:57;;;;;;;7.65;3.90;;;;;;;37.78;8.95;99911.41;5088573;28;20129;-59
2023/04/20 08:50:23;;;;;;;9.00;3.75;;;;;;;38.30;9.30;99938.03;5106304;28;20036;-58
2023/04/20 08:52:49;;;;;;;8.07;4.10;;;;;;;39.11;8.97;99934.09;5089592;28;20046;-60
2023/04/20 08:55:19;;;;;;;10.88;4.78;;;;;;;39.62;8.66;99933.53;5082134;28;20419;-62
2023/04/20 08:57:48;;;;;;;8.18;4.00;;;;;;;38.22;9.19;99922.03;5087345;28;20043;-59
2023/04/20 09:00:14;;;;;;;6.68;3.70;;;;;;;35.61;10.11;99924.00;5087055;28;20147;-60
2023/04/20 09:02:54;;;;;;;11.07;3.78;;;;;;;33.29;11.39;99925.72;5048504;28;20037;-58
2023/04/20 09:05:28;;;;;;;10.07;4.28;;;;;;;31.44;12.56;99913.44;5074627;28;20036;-58
2023/04/20 09:07:58;;;;;;;8.57;4.10;;;;;;;30.03;13.33;99913.69;5090548;28;20384;-57
2023/04/20 09:10:25;;;;;;;10.10;3.80;;;;;;;28.90;14.12;99907.28;5090883;28;20138;-60
2023/04/20 09:12:52;;;;;;;7.68;4.03;;;;;;;28.01;14.45;99882.81;5055588;28;20161;-56
2023/04/20 09:15:28;;;;;;;10.40;3.85;;;;;;;27.48;14.79;99909.66;5091115;28;20044;-53
2023/04/20 09:17:55;;;;;;;5.85;3.80;;;;;;;26.97;14.81;99879.19;5091441;28;20093;-55
2023/04/20 09:20:28;;;;;;;8.48;3.63;;;;;;;26.77;15.13;99898.97;5106231;28;20040;-57
2023/04/20 09:22:54;;;;;;;6.60;3.80;;;;;;;26.42;15.46;99901.59;5062674;28;20096;-55
2023/04/20 09:25:20;;;;;;;6.25;3.42;;;;;;;25.95;15.64;99906.94;5091184;28;20455;-52
2023/04/20 09:28:00;;;;;;;8.25;3.67;;;;;;;25.57;16.27;99909.69;5106810;28;20040;-54
2023/04/20 09:30:37;;;;;;;6.53;3.88;;;;;;;26.21;15.73;99907.13;5071738;28;20515;-57
2023/04/20 09:33:03;;;;;;;7.45;3.50;;;;;;;26.92;15.16;99902.84;5105802;28;20067;-59
2023/04/20 09:35:30;;;;;;;9.38;3.35;;;;;;;27.28;15.20;99898.31;5075265;28;20515;-56
2023/04/20 09:37:56;;;;;;;8.63;4.00;;;;;;;27.48;15.43;99908.84;5088656;28;20039;-56
2023/04/20 09:40:24;;;;;;;5.97;3.30;;;;;;;27.71;15.10;99899.34;5058848;28;20035;-58
2023/04/20 09:42:52;;;;;;;7.30;3.72;;;;;;;27.51;15.14;99906.72;5072867;28;20105;-61
2023/04/20 09:45:18;;;;;;;9.10;3.87;;;;;;;28.99;14.33;99902.78;5071061;28;20052;-59
2023/04/20 09:47:45;;;;;;;8.52;4.15;;;;;;;31.22;12.99;99898.16;5097546;28;20054;-60
2023/04/20 09:50:11;;;;;;;8.13;3.67;;;;;;;33.06;12.15;99888.19;5089684;28;20424;-61
2023/04/20 09:52:37;;;;;;;10.70;3.78;;;;;;;34.42;11.38;99885.91;5090513;28;20743;-61
2023/04/20 09:55:06;;;;;;;13.65;4.28;;;;;;;35.33;10.85;99893.66;5056078;28;20572;-59
2023/04/20 09:57:32;;;;;;;4.65;3.50;;;;;;;36.19;10.73;99897.94;5089575;28;20043;-60
2023/04/20 09:59:59;;;;;;;7.88;3.95;;;;;;;37.00;10.06;99892.78;5113676;27;20040;-60
2023/04/20 10:02:25;;;;;;;9.80;4.15;;;;;;;37.77;9.44;99891.56;5054969;28;20047;-59
2023/04/20 10:04:58;;;;;;;8.27;3.88;;;;;;;38.32;9.47;99895.16;5070463;28;20051;-56
2023/04/20 10:07:26;;;;;;;9.10;3.67;;;;;;;39.01;8.93;99896.59;5087074;28;20108;-60
2023/04/20 10:10:06;;;;;;;6.32;4.10;;;;;;;39.33;8.67;99894.44;5090909;28;20039;-61
2023/04/20 10:12:35;;;;;;;9.57;4.43;;;;;;;39.39;8.67;99888.06;5089315;28;20036;-57
2023/04/20 10:15:02;;;;;;;8.52;4.75;;;;;;;39.76;8.15;99886.81;5080052;28;20031;-59
2023/04/20 10:17:32;;;;;;;7.53;3.47;;;;;;;39.99;8.12;99868.78;5060650;28;20525;-62
2023/04/20 10:19:58;;;;;;;12.70;4.15;;;;;;;40.32;7.93;99879.03;5082156;28;20775;-60
2023/04/20 10:22:32;;;;;;;12.90;4.68;;;;;;;40.63;7.68;99873.13;5097098;27;20076;-60
2023/04/20 10:25:19;;;;;;;14.60;4.43;;;;;;;41.21;7.56;99883.75;5079757;28;20036;-61
2023/04/20 10:27:56;;;;;;;5.88;3.90;;;;;;;41.01;7.71;99875.19;5062820;28;20121;-60
2023/04/20 10:30:23;;;;;;;;;;;;;;;41.30;7.38;99878.69;5091135;28;20061;-61
2023/04/20 10:32:49;;;;;;;4.83;3.13;;;;;;;40.47;7.10;99873.88;5069497;28;19923;-58
2023/04/20 10:35:16;;;;;;;8.48;4.25;;;;;;;38.16;8.30;99874.03;5065705;28;20504;-58
2023/04/20 10:37:51;;;;;;;9.00;3.40;;;;;;;36.03;9.20;99874.00;5081923;28;20059;-63
2023/04/20 10:40:25;;;;;;;3.80;3.40;;;;;;;35.51;9.45;99858.69;5083240;28;20051;-60
2023/04/20 10:42:51;;;;;;;5.78;3.53;;;;;;;37.47;8.75;99861.56;5068661;28;20048;-58
2023/04/20 10:45:17;;;;;;;5.90;3.83;;;;;;;38.86;8.38;99852.66;5102445;27;20635;-63
2023/04/20 10:47:44;;;;;;;9.82;5.10;;;;;;;39.68;8.04;99853.63;5102208;28;20121;-61
2023/04/20 10:50:14;;;;;;;9.02;4.20;;;;;;;39.93;8.00;99848.78;5059603;28;20048;-58
2023/04/20 10:52:42;;;;;;;6.85;3.50;;;;;;;38.65;8.34;99832.25;5067731;28;20066;-60
2023/04/20 10:55:25;;;;;;;5.53;3.78;;;;;;;38.33;8.29;99861.50;5066352;28;20044;-58
2023/04/20 10:57:52;;;;;;;6.95;3.80;;;;;;;38.15;8.48;99847.97;5068789;28;20071;-60
2023/04/20 11:00:23;;;;;;;12.75;4.15;;;;;;;37.83;8.50;99852.69;5067271;28;20132;-60
2023/04/20 11:02:51;;;;;;;8.68;3.67;;;;;;;36.34;9.38;99841.63;5069745;28;20040;-59
2023/04/20 11:05:18;;;;;;;11.98;4.47;;;;;;;34.78;10.07;99844.25;5069328;28;20043;-58
2023/04/20 11:07:55;;;;;;;7.93;4.05;;;;;;;33.25;10.63;99831.97;5079132;28;20843;-59
2023/04/20 11:10:35;;;;;;;9.05;3.47;;;;;;;32.05;11.27;99828.97;5064365;28;20047;-59
2023/04/20 11:13:01;;;;;;;5.55;4.18;;;;;;;31.08;11.90;99793.19;5071082;28;20101;-61
2023/04/20 11:15:30;;;;;;;12.80;7.05;;;;;;;30.66;12.07;99825.03;5067067;28;20044;-59
2023/04/20 11:18:08;;;;;;;12.80;5.63;;;;;;;30.05;12.73;99809.72;5066349;28;20035;-59
2023/04/20 11:20:35;;;;;;;9.00;4.00;;;;;;;29.30;13.29;99812.75;5070565;28;20593;-56
2023/04/20 11:23:03;;;;;;;5.35;3.65;;;;;;;28.72;13.90;99815.59;5076167;28;20576;-57
2023/04/20 11:25:30;;;;;;;4.95;3.92;;;;;;;28.29;13.99;99810.44;5060696;28;20044;-57
2023/04/20 11:28:09;;;;;;;10.63;3.70;;;;;;;27.69;14.53;99797.97;5059734;28;20054;-58